Time;durP1;ratioP1;P1;durP2;ratioP2;P2;SDS_P1;SDS_P2;PMS_P1;PMS_P2;Temp;Humidity;BMP_temperature;BMP_pressure;BME280_temperature;BME280_humidity;BME280_pressure;Samples;Min_cycle;Max_cycle;Signal;HPM_P1;HPM_P2
2021/08/02 00:00:51;;;;;;;7.80;5.90;;;18.40;99.90;;;;;;2092323;28;20060;-71
2021/08/02 00:01:55;;;;;;;7.53;6.10;;;18.40;99.90;;;;;;2105139;28;20609;-71
2021/08/02 00:03:08;;;;;;;6.22;5.70;;;18.40;99.90;;;;;;2104798;28;20024;-71
2021/08/02 00:04:09;;;;;;;6.20;5.68;;;18.40;99.90;;;;;;2105075;28;20475;-71
2021/08/02 00:05:11;;;;;;;6.10;5.50;;;18.40;99.90;;;;;;2105153;28;20035;-71
2021/08/02 00:06:21;;;;;;;10.73;5.40;;;18.40;99.90;;;;;;2105165;28;20121;-71
2021/08/02 00:07:23;;;;;;;6.18;5.55;;;18.40;99.90;;;;;;2100024;28;20123;-71
2021/08/02 00:08:27;;;;;;;5.90;5.28;;;18.40;99.90;;;;;;2096674;28;20060;-71
2021/08/02 00:09:33;;;;;;;5.80;5.10;;;18.50;99.90;;;;;;2103746;28;20032;-71
2021/08/02 00:10:35;;;;;;;7.45;5.30;;;18.40;99.90;;;;;;2104357;28;20036;-71
2021/08/02 00:11:44;;;;;;;5.70;5.15;;;18.40;99.90;;;;;;2104278;28;20020;-71
2021/08/02 00:12:51;;;;;;;6.75;5.22;;;18.40;99.90;;;;;;2104059;28;20413;-71
2021/08/02 00:13:52;;;;;;;5.22;4.75;;;18.40;99.90;;;;;;2104021;28;20020;-71
2021/08/02 00:14:55;;;;;;;5.93;5.43;;;18.40;99.90;;;;;;2104300;28;20032;-71
2021/08/02 00:16:02;;;;;;;6.75;6.00;;;18.40;99.90;;;;;;2105454;28;20020;-71
2021/08/02 00:17:05;;;;;;;5.60;5.10;;;18.40;99.90;;;;;;2102470;28;20027;-71
2021/08/02 00:18:07;;;;;;;5.13;4.60;;;18.40;99.90;;;;;;2096757;28;20433;-71
2021/08/02 00:19:09;;;;;;;5.03;4.50;;;18.40;99.90;;;;;;2103570;28;20030;-71
2021/08/02 00:20:21;;;;;;;6.05;4.95;;;18.40;99.90;;;;;;2105152;28;20781;-71
2021/08/02 00:21:21;;;;;;;5.40;4.82;;;18.40;99.90;;;;;;2104365;28;20024;-71
2021/08/02 00:22:22;;;;;;;6.15;4.70;;;18.40;99.90;;;;;;2104892;28;20099;-71
2021/08/02 00:23:25;;;;;;;4.95;4.30;;;18.40;99.90;;;;;;2104625;28;20024;-71
2021/08/02 00:24:26;;;;;;;5.65;4.53;;;18.40;99.90;;;;;;2105180;28;20032;-71
2021/08/02 00:25:27;;;;;;;4.72;4.18;;;18.40;99.90;;;;;;2105059;28;20024;-71
2021/08/02 00:26:28;;;;;;;6.60;4.63;;;18.40;99.90;;;;;;2104355;28;20395;-71
2021/08/02 00:27:29;;;;;;;5.70;4.55;;;18.40;99.90;;;;;;2098319;28;20040;-71
2021/08/02 00:28:30;;;;;;;4.97;4.20;;;18.40;99.90;;;;;;2100319;28;20028;-71
2021/08/02 00:29:32;;;;;;;5.10;4.60;;;18.40;99.90;;;;;;2104791;28;20024;-71
2021/08/02 00:30:34;;;;;;;4.35;3.95;;;18.40;99.90;;;;;;2104795;28;20523;-71
2021/08/02 00:31:36;;;;;;;5.68;3.40;;;18.40;99.90;;;;;;2104565;28;20591;-71
2021/08/02 00:32:37;;;;;;;5.25;4.47;;;18.40;99.90;;;;;;2104676;28;20022;-71
2021/08/02 00:33:37;;;;;;;4.13;3.67;;;18.40;99.90;;;;;;2098375;28;20028;-71
2021/08/02 00:34:38;;;;;;;5.03;4.55;;;18.40;99.90;;;;;;2096014;28;20035;-71
2021/08/02 00:35:47;;;;;;;4.55;4.18;;;18.40;99.90;;;;;;2096619;28;20051;-71
2021/08/02 00:36:58;;;;;;;5.47;4.15;;;18.40;99.90;;;;;;2096679;28;20107;-71
2021/08/02 00:38:04;;;;;;;4.65;4.07;;;18.40;99.90;;;;;;2090228;28;20028;-71
2021/08/02 00:39:10;;;;;;;4.50;3.95;;;18.40;99.90;;;;;;2096910;28;20039;-71
2021/08/02 00:40:29;;;;;;;5.05;4.53;;;18.40;99.90;;;;;;2095195;28;20456;-71
2021/08/02 00:42:06;;;;;;;8.88;3.92;;;18.40;99.90;;;;;;2093217;28;20032;-71
2021/08/02 00:43:25;;;;;;;4.70;3.38;;;18.30;99.90;;;;;;2095263;28;20056;-70
2021/08/02 00:44:29;;;;;;;4.72;4.30;;;18.30;99.90;;;;;;2095941;28;20435;-71
2021/08/02 00:45:32;;;;;;;8.45;4.32;;;18.30;99.90;;;;;;2095531;28;20457;-71
2021/08/02 00:46:40;;;;;;;4.85;4.32;;;18.30;99.90;;;;;;2099968;28;20372;-71
2021/08/02 00:47:54;;;;;;;4.28;3.88;;;18.30;99.90;;;;;;2093821;28;20029;-71
2021/08/02 00:49:04;;;;;;;4.97;4.43;;;18.30;99.90;;;;;;2102638;28;20105;-71
2021/08/02 00:50:28;;;;;;;6.85;4.38;;;18.30;99.90;;;;;;2096462;28;20029;-71
2021/08/02 00:51:35;;;;;;;6.25;3.80;;;18.30;99.90;;;;;;2096424;28;20121;-71
2021/08/02 00:52:40;;;;;;;8.70;4.35;;;18.30;99.90;;;;;;2095979;28;20020;-70
2021/08/02 00:53:45;;;;;;;5.88;4.13;;;18.30;99.90;;;;;;2096622;28;20051;-70
2021/08/02 00:54:48;;;;;;;4.97;3.95;;;18.20;99.90;;;;;;2095647;28;20419;-71
2021/08/02 00:55:52;;;;;;;6.28;4.10;;;18.30;99.90;;;;;;2096160;28;20035;-71
2021/08/02 00:56:57;;;;;;;5.18;3.75;;;18.30;99.90;;;;;;2097527;28;20024;-71
2021/08/02 00:58:03;;;;;;;7.57;3.88;;;18.30;99.90;;;;;;2094855;28;20038;-71
2021/08/02 00:59:06;;;;;;;4.57;3.60;;;18.20;99.90;;;;;;2096524;28;20499;-71
2021/08/02 01:00:13;;;;;;;4.70;3.35;;;18.20;99.90;;;;;;2096148;28;20063;-71
2021/08/02 01:01:15;;;;;;;4.25;3.00;;;18.20;99.90;;;;;;2096308;28;20025;-71
2021/08/02 01:02:18;;;;;;;3.67;3.20;;;18.20;99.90;;;;;;2096078;28;20107;-71
2021/08/02 01:03:19;;;;;;;3.72;3.28;;;18.20;99.90;;;;;;2095268;28;20040;-71
2021/08/02 01:04:23;;;;;;;4.60;3.35;;;18.20;99.90;;;;;;2095786;28;20048;-71
2021/08/02 01:05:24;;;;;;;5.50;3.85;;;18.20;99.90;;;;;;2096424;28;20032;-71
2021/08/02 01:06:30;;;;;;;3.40;3.10;;;18.20;99.90;;;;;;2095971;28;20518;-70
2021/08/02 01:07:33;;;;;;;3.70;3.38;;;18.20;99.90;;;;;;2098058;28;20020;-70
2021/08/02 01:08:37;;;;;;;4.63;3.17;;;18.20;99.90;;;;;;2095676;28;20073;-70
2021/08/02 01:09:41;;;;;;;3.92;3.38;;;18.20;99.90;;;;;;2104073;28;20046;-70
2021/08/02 01:10:48;;;;;;;3.95;3.45;;;18.10;99.90;;;;;;2104459;28;20039;-70
2021/08/02 01:11:52;;;;;;;7.03;3.28;;;18.10;99.90;;;;;;2104807;28;20032;-71
2021/08/02 01:12:57;;;;;;;3.38;2.78;;;18.10;99.90;;;;;;2104047;28;20417;-71
2021/08/02 01:13:59;;;;;;;4.18;3.20;;;18.10;99.90;;;;;;2104731;28;20036;-71
2021/08/02 01:15:00;;;;;;;3.08;2.83;;;18.10;99.90;;;;;;2098118;28;20044;-71
2021/08/02 01:16:03;;;;;;;5.47;3.33;;;18.00;99.90;;;;;;2096260;28;20016;-71
2021/08/02 01:17:06;;;;;;;5.18;3.25;;;18.10;99.90;;;;;;2096304;28;20020;-71
2021/08/02 01:18:09;;;;;;;8.20;3.17;;;18.00;99.90;;;;;;2096408;28;20108;-72
2021/08/02 01:19:11;;;;;;;3.35;3.05;;;18.00;99.90;;;;;;2102195;28;20034;-72
2021/08/02 01:20:12;;;;;;;6.07;2.90;;;18.00;99.90;;;;;;2104804;28;20088;-72
2021/08/02 01:21:19;;;;;;;6.78;3.58;;;18.00;99.90;;;;;;2103887;28;20024;-71
2021/08/02 01:22:29;;;;;;;3.67;3.15;;;18.00;99.90;;;;;;2103871;28;20570;-71
2021/08/02 01:23:30;;;;;;;4.07;3.65;;;18.00;99.90;;;;;;2103865;28;20100;-71
2021/08/02 01:24:35;;;;;;;4.20;3.30;;;17.90;99.90;;;;;;2104548;28;20030;-71
2021/08/02 01:25:35;;;;;;;5.25;3.47;;;17.90;99.90;;;;;;2104467;28;20364;-71
2021/08/02 01:26:42;;;;;;;3.63;3.15;;;17.90;99.90;;;;;;2104836;28;20031;-71
2021/08/02 01:27:47;;;;;;;3.65;3.35;;;17.90;99.90;;;;;;2098751;28;20132;-71
2021/08/02 01:29:25;;;;;;;5.43;3.35;;;17.80;99.90;;;;;;2101336;28;20072;-71
2021/08/02 01:30:26;;;;;;;5.13;3.35;;;17.80;99.90;;;;;;2104538;28;20103;-71
2021/08/02 01:31:26;;;;;;;6.88;3.55;;;17.80;99.90;;;;;;2103557;28;20020;-71
2021/08/02 01:32:27;;;;;;;4.05;2.55;;;17.70;99.90;;;;;;2104265;28;20396;-71
2021/08/02 01:33:33;;;;;;;3.80;3.15;;;17.80;99.90;;;;;;2099995;28;20024;-71
2021/08/02 01:34:33;;;;;;;4.07;3.10;;;17.70;99.90;;;;;;2096287;28;20055;-71
2021/08/02 01:35:36;;;;;;;3.95;2.85;;;17.70;99.90;;;;;;2096073;28;20020;-71
2021/08/02 01:36:37;;;;;;;2.75;2.53;;;17.70;99.90;;;;;;2096387;28;20023;-71
2021/08/02 01:37:37;;;;;;;2.97;2.70;;;17.70;99.90;;;;;;2092704;28;20040;-71
2021/08/02 01:38:38;;;;;;;5.25;3.05;;;17.60;99.90;;;;;;2100833;28;20534;-71
2021/08/02 01:39:53;;;;;;;4.53;3.13;;;17.60;99.90;;;;;;2096276;28;20032;-71
2021/08/02 01:40:54;;;;;;;3.75;3.03;;;17.60;99.90;;;;;;2090750;28;20472;-71
2021/08/02 01:41:55;;;;;;;6.43;3.38;;;17.60;99.90;;;;;;2087692;28;20033;-71
2021/08/02 01:43:10;;;;;;;5.65;3.25;;;17.60;99.90;;;;;;2090741;28;20025;-71
2021/08/02 01:44:11;;;;;;;3.65;2.90;;;17.60;99.90;;;;;;2093393;28;20032;-71
2021/08/02 01:45:12;;;;;;;4.50;3.35;;;17.50;99.90;;;;;;2101896;28;20013;-71
2021/08/02 01:46:39;;;;;;;8.50;3.50;;;17.50;99.90;;;;;;2097836;28;20051;-71
2021/08/02 01:48:01;;;;;;;4.72;3.05;;;17.50;99.90;;;;;;2096197;28;20035;-71
2021/08/02 01:49:04;;;;;;;5.13;3.15;;;17.50;99.90;;;;;;2099150;28;20016;-71
2021/08/02 01:50:39;;;;;;;3.88;2.80;;;17.40;99.90;;;;;;2096032;28;20107;-71
2021/08/02 01:51:45;;;;;;;4.13;3.25;;;17.40;99.90;;;;;;2092475;28;20495;-71
2021/08/02 01:53:00;;;;;;;2.67;2.47;;;17.40;99.90;;;;;;2095675;28;20020;-71
2021/08/02 01:54:37;;;;;;;3.33;2.88;;;17.40;99.90;;;;;;2095879;28;20020;-71
2021/08/02 01:55:39;;;;;;;6.50;3.00;;;17.30;99.90;;;;;;2096401;28;20103;-71
2021/08/02 01:57:22;;;;;;;8.63;3.50;;;17.30;99.90;;;;;;2098772;28;20028;-71
2021/08/02 01:58:27;;;;;;;3.85;2.75;;;17.30;99.90;;;;;;2089820;28;20095;-71
2021/08/02 01:59:33;;;;;;;4.90;3.10;;;17.30;99.90;;;;;;2092840;28;20045;-71
2021/08/02 02:00:42;;;;;;;3.17;2.88;;;17.30;99.90;;;;;;2093073;28;20049;-71
2021/08/02 02:01:58;;;;;;;2.88;2.55;;;17.30;99.90;;;;;;2093241;28;20020;-71
2021/08/02 02:03:07;;;;;;;3.75;2.80;;;17.30;99.90;;;;;;2102204;28;20038;-71
2021/08/02 02:04:08;;;;;;;5.15;3.00;;;17.30;99.90;;;;;;2099334;28;20049;-71
2021/08/02 02:05:18;;;;;;;4.68;2.92;;;17.30;99.90;;;;;;2097645;28;20013;-71
2021/08/02 02:06:26;;;;;;;9.90;4.13;;;17.30;99.90;;;;;;2094459;28;20793;-71
2021/08/02 02:07:31;;;;;;;4.47;3.05;;;17.30;99.90;;;;;;2096748;28;20567;-71
2021/08/02 02:08:53;;;;;;;3.75;2.83;;;17.30;99.90;;;;;;2096931;28;20048;-71
2021/08/02 02:09:57;;;;;;;5.75;3.50;;;17.30;99.90;;;;;;2094295;28;20021;-71
2021/08/02 02:11:01;;;;;;;5.32;3.25;;;17.20;99.90;;;;;;2100817;28;20032;-71
2021/08/02 02:12:03;;;;;;;5.90;3.03;;;17.30;99.90;;;;;;2105643;28;20056;-71
2021/08/02 02:13:24;;;;;;;4.47;3.30;;;17.30;99.90;;;;;;2105069;28;20078;-71
2021/08/02 02:14:31;;;;;;;2.97;2.67;;;17.30;99.90;;;;;;2105139;28;20071;-71
2021/08/02 02:15:32;;;;;;;3.70;3.03;;;17.20;99.90;;;;;;2105146;28;20020;-71
2021/08/02 02:16:36;;;;;;;4.10;3.30;;;17.20;99.90;;;;;;2099774;28;20424;-71
2021/08/02 02:17:38;;;;;;;3.53;3.20;;;17.20;99.90;;;;;;2103876;28;20036;-71
2021/08/02 02:18:46;;;;;;;5.15;3.60;;;17.20;99.90;;;;;;2105433;28;20013;-71
2021/08/02 02:19:50;;;;;;;4.18;2.85;;;17.30;99.90;;;;;;2105766;28;20860;-71
2021/08/02 02:20:53;;;;;;;8.48;3.80;;;17.30;99.90;;;;;;2105604;28;20441;-71
2021/08/02 02:21:55;;;;;;;5.38;3.40;;;17.20;99.90;;;;;;2105410;28;20048;-71
2021/08/02 02:22:56;;;;;;;5.25;3.00;;;17.30;99.90;;;;;;2105259;28;20055;-71
2021/08/02 02:23:58;;;;;;;2.90;2.58;;;17.20;99.90;;;;;;2105705;28;20024;-71
2021/08/02 02:24:59;;;;;;;3.22;2.58;;;17.20;99.90;;;;;;2104831;28;20384;-71
2021/08/02 02:26:00;;;;;;;5.50;2.92;;;17.20;99.90;;;;;;2096674;28;20024;-71
2021/08/02 02:27:01;;;;;;;6.45;3.47;;;17.20;99.90;;;;;;2104984;28;20454;-71
2021/08/02 02:28:02;;;;;;;2.85;2.58;;;17.20;99.90;;;;;;2105461;28;20036;-71
2021/08/02 02:29:09;;;;;;;3.33;2.90;;;17.20;99.90;;;;;;2097797;28;20056;-71
2021/08/02 02:30:10;;;;;;;5.57;2.70;;;17.20;99.90;;;;;;2100619;28;20494;-71
2021/08/02 02:31:11;;;;;;;3.85;2.63;;;17.20;99.90;;;;;;2105294;28;20023;-71
2021/08/02 02:32:13;;;;;;;3.60;2.80;;;17.20;99.90;;;;;;2105524;28;20371;-71
2021/08/02 02:33:15;;;;;;;3.35;2.70;;;17.20;99.90;;;;;;2103140;28;20070;-71
2021/08/02 02:34:16;;;;;;;5.95;3.15;;;17.20;99.90;;;;;;2097367;28;20013;-71
2021/08/02 02:35:20;;;;;;;6.63;2.60;;;17.20;99.90;;;;;;2096761;28;20127;-71
2021/08/02 02:36:21;;;;;;;4.70;2.85;;;17.20;99.90;;;;;;2098397;28;20028;-71
2021/08/02 02:37:24;;;;;;;4.15;2.38;;;17.20;99.90;;;;;;2098930;28;20091;-71
2021/08/02 02:38:25;;;;;;;3.60;2.90;;;17.20;99.90;;;;;;2098742;28;20024;-71
2021/08/02 02:39:29;;;;;;;3.63;2.50;;;17.20;99.90;;;;;;2096687;28;20510;-71
2021/08/02 02:40:30;;;;;;;4.20;2.40;;;17.20;99.90;;;;;;2092931;28;20115;-71
2021/08/02 02:41:31;;;;;;;3.90;2.72;;;17.20;99.90;;;;;;2099071;28;20042;-71
2021/08/02 02:42:33;;;;;;;4.75;2.80;;;17.20;99.90;;;;;;2096868;28;20059;-71
2021/08/02 02:43:34;;;;;;;3.55;2.80;;;17.20;99.90;;;;;;2103818;28;20499;-71
2021/08/02 02:44:37;;;;;;;4.97;3.17;;;17.20;99.90;;;;;;2107060;28;20428;-71
2021/08/02 02:45:39;;;;;;;5.03;2.92;;;17.20;99.90;;;;;;2107155;28;20068;-71
2021/08/02 02:46:40;;;;;;;3.95;2.60;;;17.10;99.90;;;;;;2106923;28;20036;-71
2021/08/02 02:47:42;;;;;;;5.53;2.92;;;17.10;99.90;;;;;;2106974;28;20555;-71
2021/08/02 02:48:45;;;;;;;7.57;2.80;;;17.10;99.90;;;;;;2104203;28;20028;-72
2021/08/02 02:49:47;;;;;;;2.95;2.53;;;17.10;99.90;;;;;;2098702;28;20056;-71
2021/08/02 02:50:49;;;;;;;3.03;2.67;;;17.10;99.90;;;;;;2098526;28;20047;-71
2021/08/02 02:51:50;;;;;;;6.43;3.10;;;17.10;99.90;;;;;;2098408;28;20082;-71
2021/08/02 02:52:52;;;;;;;5.13;3.10;;;17.10;99.90;;;;;;2098244;28;20090;-71
2021/08/02 02:53:55;;;;;;;3.63;3.33;;;17.10;99.90;;;;;;2098955;28;20027;-71
2021/08/02 02:54:57;;;;;;;3.25;2.33;;;17.10;99.90;;;;;;2098212;28;20020;-71
2021/08/02 02:55:58;;;;;;;3.22;2.90;;;17.10;99.90;;;;;;2099801;28;20033;-71
2021/08/02 02:57:00;;;;;;;2.97;2.55;;;17.10;99.90;;;;;;2098321;28;20025;-71
2021/08/02 02:58:01;;;;;;;5.40;2.88;;;17.10;99.90;;;;;;2101509;28;20407;-71
2021/08/02 02:59:02;;;;;;;4.40;2.67;;;17.10;99.90;;;;;;2106239;28;20024;-71
2021/08/02 03:00:05;;;;;;;7.47;3.35;;;17.10;99.90;;;;;;2106352;28;20039;-71
2021/08/02 03:01:06;;;;;;;7.32;3.00;;;17.10;99.90;;;;;;2106757;28;20016;-71
2021/08/02 03:02:07;;;;;;;8.05;2.75;;;17.10;99.90;;;;;;2105953;28;20034;-71
2021/08/02 03:03:09;;;;;;;6.07;3.03;;;17.10;99.90;;;;;;2105144;28;20034;-71
2021/08/02 03:04:11;;;;;;;4.35;3.05;;;17.10;99.90;;;;;;2106018;28;20016;-71
2021/08/02 03:05:12;;;;;;;5.55;3.42;;;17.10;99.90;;;;;;2105935;28;20463;-71
2021/08/02 03:06:15;;;;;;;3.72;2.80;;;17.10;99.90;;;;;;2106182;28;20421;-71
2021/08/02 03:07:16;;;;;;;3.97;3.05;;;17.00;99.90;;;;;;2105935;28;20085;-71
2021/08/02 03:08:22;;;;;;;5.57;2.90;;;17.10;99.90;;;;;;2106216;28;20021;-71
2021/08/02 03:09:27;;;;;;;3.60;3.28;;;17.00;99.90;;;;;;2106132;28;20758;-71
2021/08/02 03:10:28;;;;;;;4.88;3.17;;;17.00;99.90;;;;;;2105771;28;20131;-72
2021/08/02 03:11:29;;;;;;;4.18;3.20;;;17.00;99.90;;;;;;2101153;28;20472;-71
2021/08/02 03:12:30;;;;;;;6.30;3.30;;;17.00;99.90;;;;;;2101429;28;20440;-71
2021/08/02 03:13:31;;;;;;;8.48;3.00;;;17.00;99.90;;;;;;2105345;28;20806;-71
2021/08/02 03:14:32;;;;;;;3.72;2.97;;;17.00;99.90;;;;;;2105727;28;20502;-71
2021/08/02 03:15:33;;;;;;;3.70;2.88;;;17.00;99.90;;;;;;2105086;28;20439;-71
2021/08/02 03:16:33;;;;;;;4.00;2.88;;;17.00;99.90;;;;;;2105518;28;20055;-71
2021/08/02 03:17:34;;;;;;;5.15;3.40;;;17.00;99.90;;;;;;2105706;28;20024;-71
2021/08/02 03:18:35;;;;;;;4.45;3.28;;;17.00;99.90;;;;;;2105574;28;20161;-71
2021/08/02 03:19:37;;;;;;;5.68;3.58;;;17.00;99.90;;;;;;2105490;28;20545;-71
2021/08/02 03:20:39;;;;;;;5.75;3.30;;;17.00;99.90;;;;;;2105558;28;20028;-71
2021/08/02 03:21:40;;;;;;;6.03;3.10;;;17.00;99.90;;;;;;2105132;28;20020;-71
2021/08/02 03:22:48;;;;;;;6.15;3.17;;;17.00;99.90;;;;;;2105020;28;20097;-71
2021/08/02 03:24:32;;;;;;;5.05;2.80;;;17.00;99.90;;;;;;2105551;28;20039;-71
2021/08/02 03:25:38;;;;;;;3.10;2.38;;;17.00;99.90;;;;;;2102725;28;20048;-71
2021/08/02 03:26:55;;;;;;;3.17;2.83;;;16.90;99.90;;;;;;2098425;28;20036;-71
2021/08/02 03:28:08;;;;;;;4.53;2.50;;;16.90;99.90;;;;;;2105461;28;20051;-71
2021/08/02 03:29:19;;;;;;;9.88;3.20;;;16.90;99.90;;;;;;2105580;28;20028;-71
2021/08/02 03:30:21;;;;;;;4.80;2.90;;;16.90;99.90;;;;;;2105262;28;20061;-71
2021/08/02 03:31:29;;;;;;;7.00;3.47;;;16.90;99.90;;;;;;2105177;28;20099;-71
2021/08/02 03:32:33;;;;;;;3.20;2.88;;;16.90;99.90;;;;;;2105516;28;20341;-71
2021/08/02 03:33:36;;;;;;;5.40;3.30;;;16.90;99.90;;;;;;2100321;28;20119;-71
2021/08/02 03:34:38;;;;;;;7.07;3.30;;;16.90;99.90;;;;;;2097124;28;20035;-71
2021/08/02 03:35:42;;;;;;;6.40;2.88;;;16.90;99.90;;;;;;2097026;28;20020;-71
2021/08/02 03:36:44;;;;;;;4.90;2.88;;;16.90;99.90;;;;;;2096836;28;20407;-71
2021/08/02 03:37:46;;;;;;;6.05;2.90;;;16.90;99.90;;;;;;2096971;28;20024;-71
2021/08/02 03:38:50;;;;;;;4.90;2.70;;;16.90;99.90;;;;;;2096924;28;20063;-71
2021/08/02 03:39:53;;;;;;;5.78;2.65;;;16.90;99.90;;;;;;2097370;28;20012;-71
2021/08/02 03:40:57;;;;;;;5.57;2.85;;;16.80;99.90;;;;;;2095187;28;20021;-71
2021/08/02 03:41:58;;;;;;;4.53;3.00;;;16.80;99.90;;;;;;2097481;28;20217;-71
2021/08/02 03:43:00;;;;;;;3.55;2.80;;;16.90;99.90;;;;;;2096398;28;20046;-71
2021/08/02 03:44:01;;;;;;;4.35;2.90;;;16.80;99.90;;;;;;2096501;28;20036;-71
2021/08/02 03:45:03;;;;;;;10.85;3.33;;;16.80;99.90;;;;;;2102627;28;20053;-71
2021/08/02 03:46:06;;;;;;;4.32;3.38;;;16.80;99.90;;;;;;2097828;28;20025;-71
2021/08/02 03:47:06;;;;;;;4.15;2.85;;;16.80;99.90;;;;;;2089347;28;20024;-71
2021/08/02 03:48:09;;;;;;;4.78;3.20;;;16.80;99.90;;;;;;2093182;28;20063;-71
2021/08/02 03:49:10;;;;;;;3.53;3.22;;;16.80;99.90;;;;;;2090362;28;20021;-71
2021/08/02 03:50:11;;;;;;;5.63;3.53;;;16.80;99.90;;;;;;2096554;28;20094;-71
2021/08/02 03:51:12;;;;;;;4.35;2.78;;;16.80;99.90;;;;;;2096714;28;20024;-71
2021/08/02 03:52:12;;;;;;;4.40;3.20;;;16.80;99.90;;;;;;2095522;28;20040;-71
2021/08/02 03:53:13;;;;;;;4.45;2.70;;;16.80;99.90;;;;;;2101236;28;20123;-71
2021/08/02 03:54:16;;;;;;;5.07;3.08;;;16.80;99.90;;;;;;2095779;28;20024;-71
2021/08/02 03:55:20;;;;;;;5.00;3.17;;;16.80;99.90;;;;;;2092232;28;20024;-71
2021/08/02 03:56:20;;;;;;;8.38;3.10;;;16.70;99.90;;;;;;2099654;28;20050;-71
2021/08/02 03:57:22;;;;;;;5.00;3.63;;;16.80;99.90;;;;;;2096779;28;20487;-71
2021/08/02 03:58:23;;;;;;;3.65;3.20;;;16.70;99.90;;;;;;2097025;28;20039;-71
2021/08/02 03:59:24;;;;;;;6.32;3.50;;;16.80;99.90;;;;;;2096841;28;20553;-71
2021/08/02 04:00:24;;;;;;;5.18;2.95;;;16.70;99.90;;;;;;2096821;28;20507;-71
2021/08/02 04:01:25;;;;;;;5.00;2.88;;;16.70;99.90;;;;;;2096735;28;20104;-71
2021/08/02 04:02:25;;;;;;;12.43;3.45;;;16.70;99.90;;;;;;2096689;28;20040;-71
2021/08/02 04:03:26;;;;;;;6.00;3.75;;;16.70;99.90;;;;;;2096104;28;20091;-71
2021/08/02 04:04:26;;;;;;;7.55;3.20;;;16.70;99.90;;;;;;2096986;28;20056;-71
2021/08/02 04:05:27;;;;;;;3.35;2.67;;;16.70;99.90;;;;;;2095860;28;20431;-71
2021/08/02 04:06:28;;;;;;;6.80;3.20;;;16.70;99.90;;;;;;2096417;28;20028;-71
2021/08/02 04:07:29;;;;;;;7.65;3.17;;;16.70;99.90;;;;;;2096798;28;20029;-71
2021/08/02 04:08:29;;;;;;;6.85;3.03;;;16.70;99.90;;;;;;2096565;28;20052;-71
2021/08/02 04:09:30;;;;;;;5.57;3.20;;;16.70;99.90;;;;;;2092145;28;20083;-71
2021/08/02 04:10:30;;;;;;;4.90;2.97;;;16.70;99.90;;;;;;2091581;28;20052;-71
2021/08/02 04:11:31;;;;;;;7.18;3.80;;;16.70;99.90;;;;;;2105075;28;20124;-71
2021/08/02 04:12:32;;;;;;;5.93;3.08;;;16.70;99.90;;;;;;2104737;28;20024;-71
2021/08/02 04:13:33;;;;;;;6.28;3.08;;;16.70;99.90;;;;;;2104838;28;20106;-71
2021/08/02 04:14:33;;;;;;;4.55;2.92;;;16.70;99.90;;;;;;2104554;28;20035;-71
2021/08/02 04:15:34;;;;;;;2.90;2.63;;;16.70;99.90;;;;;;2104152;28;20026;-71
2021/08/02 04:16:35;;;;;;;4.53;3.17;;;16.70;99.90;;;;;;2105071;28;20032;-71
2021/08/02 04:17:36;;;;;;;4.47;2.90;;;16.70;99.90;;;;;;2104931;28;20073;-71
2021/08/02 04:18:36;;;;;;;4.03;2.90;;;16.70;99.90;;;;;;2104498;28;20024;-71
2021/08/02 04:19:37;;;;;;;3.58;2.80;;;16.70;99.90;;;;;;2104366;28;20502;-71
2021/08/02 04:20:38;;;;;;;3.90;3.15;;;16.70;99.90;;;;;;2101085;28;20056;-71
2021/08/02 04:21:38;;;;;;;3.92;2.58;;;16.70;99.90;;;;;;2096566;28;20031;-71
2021/08/02 04:22:39;;;;;;;5.22;2.95;;;16.70;99.90;;;;;;2101041;28;20032;-71
2021/08/02 04:23:39;;;;;;;6.03;3.50;;;16.70;99.90;;;;;;2096811;28;20012;-71
2021/08/02 04:24:40;;;;;;;6.35;3.15;;;16.70;99.90;;;;;;2096292;28;20082;-71
2021/08/02 04:25:40;;;;;;;5.93;3.20;;;16.70;99.90;;;;;;2092545;28;20036;-71
2021/08/02 04:26:41;;;;;;;3.85;2.83;;;16.70;99.90;;;;;;2095380;28;20485;-71
2021/08/02 04:27:42;;;;;;;5.70;2.80;;;16.70;99.90;;;;;;2099256;28;20369;-71
2021/08/02 04:28:44;;;;;;;5.55;2.83;;;16.70;99.90;;;;;;2088381;28;20024;-71
2021/08/02 04:29:44;;;;;;;4.35;3.08;;;16.70;99.90;;;;;;2093237;28;20456;-71
2021/08/02 04:30:45;;;;;;;4.72;3.25;;;16.70;99.90;;;;;;2096426;28;20417;-71
2021/08/02 04:31:45;;;;;;;3.83;3.28;;;16.80;99.90;;;;;;2099772;28;20028;-71
2021/08/02 04:32:47;;;;;;;6.97;2.92;;;16.80;99.90;;;;;;2104554;28;20031;-71
2021/08/02 04:33:47;;;;;;;5.70;3.53;;;16.80;99.90;;;;;;2098120;28;20028;-71
2021/08/02 04:34:48;;;;;;;3.03;2.80;;;16.80;99.90;;;;;;2096392;28;20108;-71
2021/08/02 04:35:48;;;;;;;8.10;3.35;;;16.80;99.90;;;;;;2096889;28;20036;-71
2021/08/02 04:36:49;;;;;;;6.35;3.25;;;16.80;99.90;;;;;;2096420;28;20021;-71
2021/08/02 04:37:49;;;;;;;6.60;3.80;;;16.80;99.90;;;;;;2096291;28;20024;-71
2021/08/02 04:38:51;;;;;;;4.25;3.70;;;16.80;99.90;;;;;;2098779;28;20027;-71
2021/08/02 04:39:53;;;;;;;7.53;3.55;;;16.80;99.90;;;;;;2094355;28;20137;-71
2021/08/02 04:40:55;;;;;;;5.85;3.70;;;16.80;99.90;;;;;;2090738;28;20020;-71
2021/08/02 04:41:55;;;;;;;7.07;3.60;;;16.80;99.90;;;;;;2090664;28;20017;-71
2021/08/02 04:42:56;;;;;;;7.18;3.90;;;16.80;99.90;;;;;;2089326;28;20017;-71
2021/08/02 04:43:56;;;;;;;5.68;3.25;;;16.80;99.90;;;;;;2089733;28;20452;-71
2021/08/02 04:44:57;;;;;;;6.40;3.78;;;16.80;99.90;;;;;;2090436;28;20041;-71
2021/08/02 04:45:58;;;;;;;6.78;4.00;;;16.80;99.90;;;;;;2089923;28;20942;-71
2021/08/02 04:46:58;;;;;;;4.15;3.50;;;16.80;99.90;;;;;;2090001;28;20021;-71
2021/08/02 04:47:59;;;;;;;5.95;3.65;;;16.80;99.90;;;;;;2090928;28;20021;-71
2021/08/02 04:48:59;;;;;;;5.28;3.17;;;16.80;99.90;;;;;;2089579;28;20025;-71
2021/08/02 04:50:00;;;;;;;5.93;3.63;;;16.80;99.90;;;;;;2088391;28;20087;-71
2021/08/02 04:51:00;;;;;;;6.85;4.10;;;16.90;99.90;;;;;;2090868;28;20031;-71
2021/08/02 04:52:01;;;;;;;8.80;3.53;;;16.90;99.90;;;;;;2095044;28;20028;-71
2021/08/02 04:53:01;;;;;;;6.22;3.35;;;16.90;99.90;;;;;;2097457;28;20511;-71
2021/08/02 04:54:02;;;;;;;3.88;3.25;;;16.90;99.90;;;;;;2096204;28;20048;-71
2021/08/02 04:55:03;;;;;;;3.80;3.42;;;16.90;99.90;;;;;;2095897;28;20035;-71
2021/08/02 04:56:04;;;;;;;6.03;3.33;;;16.90;99.90;;;;;;2096255;28;20056;-71
2021/08/02 04:57:05;;;;;;;5.45;3.20;;;16.90;99.90;;;;;;2094368;28;20371;-71
2021/08/02 04:58:05;;;;;;;7.53;2.90;;;16.90;99.90;;;;;;2096648;28;20050;-71
2021/08/02 04:59:06;;;;;;;7.15;3.38;;;16.90;99.90;;;;;;2096038;28;20016;-71
2021/08/02 05:00:07;;;;;;;4.47;3.47;;;16.90;99.90;;;;;;2096044;28;20027;-71
2021/08/02 05:01:07;;;;;;;4.75;3.30;;;16.90;99.90;;;;;;2094846;28;20028;-72
2021/08/02 05:02:09;;;;;;;5.60;3.35;;;16.90;99.90;;;;;;2092230;28;20025;-71
2021/08/02 05:03:10;;;;;;;5.72;2.80;;;16.90;99.90;;;;;;2092034;28;20039;-71
2021/08/02 05:04:10;;;;;;;4.35;3.20;;;16.90;99.90;;;;;;2087605;28;20055;-71
2021/08/02 05:05:11;;;;;;;4.75;3.38;;;16.90;99.90;;;;;;2087903;28;20102;-71
2021/08/02 05:06:11;;;;;;;4.53;3.15;;;16.90;99.90;;;;;;2090605;28;20084;-71
2021/08/02 05:07:12;;;;;;;7.65;4.00;;;16.90;99.90;;;;;;2096179;28;20464;-71
2021/08/02 05:08:13;;;;;;;6.88;3.50;;;17.00;99.90;;;;;;2095347;28;20046;-71
2021/08/02 05:09:13;;;;;;;3.65;3.10;;;17.00;99.90;;;;;;2095535;28;20425;-71
2021/08/02 05:10:14;;;;;;;6.75;3.70;;;17.00;99.90;;;;;;2096082;28;20021;-71
2021/08/02 05:11:14;;;;;;;5.55;3.58;;;17.00;99.90;;;;;;2096753;28;20384;-71
2021/08/02 05:12:15;;;;;;;5.88;3.45;;;17.00;99.90;;;;;;2095302;28;20504;-71
2021/08/02 05:13:16;;;;;;;8.52;4.00;;;17.00;99.90;;;;;;2095329;28;20070;-71
2021/08/02 05:14:17;;;;;;;6.07;3.28;;;17.00;99.90;;;;;;2094577;28;20031;-71
2021/08/02 05:15:18;;;;;;;5.15;3.80;;;17.00;99.90;;;;;;2095164;28;20043;-71
2021/08/02 05:16:19;;;;;;;6.43;3.88;;;17.00;99.90;;;;;;2094982;28;20032;-71
2021/08/02 05:17:19;;;;;;;5.93;3.83;;;17.00;99.90;;;;;;2096130;28;20460;-71
2021/08/02 05:18:20;;;;;;;5.38;3.38;;;17.00;99.90;;;;;;2095481;28;20060;-71
2021/08/02 05:19:21;;;;;;;4.85;3.13;;;17.00;99.90;;;;;;2096053;28;20020;-71
2021/08/02 05:20:21;;;;;;;4.90;4.10;;;17.00;99.90;;;;;;2095932;28;20024;-71
2021/08/02 05:21:22;;;;;;;5.25;2.92;;;17.10;99.90;;;;;;2095824;28;20017;-71
2021/08/02 05:22:22;;;;;;;4.55;3.42;;;17.10;99.90;;;;;;2095948;28;20031;-71
2021/08/02 05:23:23;;;;;;;4.03;3.60;;;17.10;99.90;;;;;;2096823;28;20126;-71
2021/08/02 05:24:23;;;;;;;5.10;3.50;;;17.10;99.90;;;;;;2096012;28;20040;-71
2021/08/02 05:25:24;;;;;;;9.35;4.38;;;17.10;99.90;;;;;;2091772;28;20063;-71
2021/08/02 05:26:25;;;;;;;7.95;3.95;;;17.10;99.90;;;;;;2091221;28;20650;-71
2021/08/02 05:27:25;;;;;;;5.82;4.00;;;17.10;99.90;;;;;;2093445;28;20063;-71
2021/08/02 05:28:26;;;;;;;6.97;4.38;;;17.10;99.90;;;;;;2095111;28;20025;-71
2021/08/02 05:29:26;;;;;;;7.13;4.28;;;17.10;99.90;;;;;;2093182;28;20025;-71
2021/08/02 05:30:27;;;;;;;12.98;3.92;;;17.10;99.90;;;;;;2095161;28;20304;-71
2021/08/02 05:31:28;;;;;;;6.70;4.45;;;17.10;99.90;;;;;;2095240;28;20028;-71